createdAt,value
2022-11-18T00:00:15.001Z,98562.75
2022-11-18T00:02:42.969Z,98570.44
2022-11-18T00:05:10.915Z,98575.81
2022-11-18T00:07:40.161Z,98558.84
2022-11-18T00:10:08.290Z,98486.19
2022-11-18T00:12:53.467Z,98573.25
2022-11-18T00:15:21.567Z,98543.19
2022-11-18T00:17:49.555Z,98566.44
2022-11-18T00:20:17.778Z,98577.88
2022-11-18T00:22:47.483Z,98581.25
2022-11-18T00:25:15.515Z,98570.34
2022-11-18T00:27:43.896Z,98585.84
2022-11-18T00:30:12.993Z,98576.06
2022-11-18T00:32:41.212Z,98588.13
2022-11-18T00:35:09.676Z,98591.91
2022-11-18T00:37:37.645Z,98533.00
2022-11-18T00:40:08.394Z,98593.44
2022-11-18T00:42:54.287Z,98521.09
2022-11-18T00:45:23.158Z,98569.59
2022-11-18T00:47:51.076Z,98603.72
2022-11-18T00:50:19.068Z,98607.25
2022-11-18T00:52:47.529Z,98582.09
2022-11-18T00:55:16.844Z,98612.56
2022-11-18T00:57:44.825Z,98607.09
2022-11-18T01:00:13.347Z,98608.66
2022-11-18T01:02:41.323Z,98615.69
2022-11-18T01:05:10.040Z,98609.34
2022-11-18T01:07:38.152Z,98555.72
2022-11-18T01:10:06.760Z,98618.19
2022-11-18T01:12:54.747Z,98616.16
2022-11-18T01:15:22.885Z,98624.00
2022-11-18T01:17:50.972Z,98628.22
2022-11-18T01:20:18.977Z,98631.75
2022-11-18T01:22:47.277Z,98630.97
2022-11-18T01:25:15.216Z,98628.72
2022-11-18T01:27:44.829Z,98635.03
2022-11-18T01:30:14.085Z,98641.88
2022-11-18T01:32:41.983Z,98634.28
2022-11-18T01:35:10.815Z,98642.78
2022-11-18T01:37:38.882Z,98642.50
2022-11-18T01:40:09.667Z,98642.63
2022-11-18T01:42:38.111Z,98540.34
2022-11-18T01:45:24.535Z,98645.31
2022-11-18T01:47:58.177Z,98642.25
2022-11-18T01:50:27.707Z,98644.03
2022-11-18T01:52:59.529Z,98635.13
2022-11-18T01:55:30.341Z,98628.06
2022-11-18T01:58:06.988Z,98653.22
2022-11-18T02:00:36.952Z,98652.66
2022-11-18T02:03:05.794Z,98647.25
2022-11-18T02:05:35.640Z,98652.19
2022-11-18T02:08:04.693Z,98648.59
2022-11-18T02:10:32.711Z,98627.59
2022-11-18T02:13:01.662Z,98651.03
2022-11-18T02:15:46.493Z,98652.69
2022-11-18T02:18:25.791Z,98657.84
2022-11-18T02:20:59.195Z,98655.00
2022-11-18T02:24:00.730Z,98601.94
2022-11-18T02:27:05.909Z,98648.09
2022-11-18T02:29:39.726Z,98665.28
2022-11-18T02:32:14.618Z,98670.16
2022-11-18T02:34:50.138Z,98670.69
2022-11-18T02:37:24.328Z,98641.53
2022-11-18T02:39:59.306Z,98685.72
2022-11-18T02:42:30.505Z,98686.81
2022-11-18T02:45:04.570Z,98691.22
2022-11-18T02:47:36.214Z,98575.59
2022-11-18T02:50:07.551Z,98700.75
2022-11-18T02:52:38.795Z,98690.03
2022-11-18T02:55:12.334Z,98690.44
2022-11-18T02:57:43.618Z,98638.38
2022-11-18T03:00:14.574Z,98673.34
2022-11-18T03:02:44.012Z,98699.50
2022-11-18T03:05:18.303Z,98701.72
2022-11-18T03:07:51.068Z,98704.06
2022-11-18T03:10:23.151Z,98696.22
2022-11-18T03:12:59.004Z,98697.28
2022-11-18T03:15:36.325Z,98706.88
2022-11-18T03:18:14.748Z,98550.84
2022-11-18T03:20:51.065Z,98701.75
2022-11-18T03:23:26.568Z,98698.06
2022-11-18T03:25:57.915Z,98667.97
2022-11-18T03:28:32.646Z,98707.50
2022-11-18T03:31:07.457Z,98703.59
2022-11-18T03:33:39.033Z,98707.22
2022-11-18T03:36:11.642Z,98698.66
2022-11-18T03:38:44.026Z,98605.03
2022-11-18T03:41:15.172Z,98684.16
2022-11-18T03:43:48.627Z,98717.25
2022-11-18T03:46:21.910Z,98695.81
2022-11-18T03:48:53.120Z,98721.16
2022-11-18T03:51:25.074Z,98726.88
2022-11-18T03:54:00.294Z,98728.44
2022-11-18T03:56:35.700Z,98717.88
2022-11-18T03:59:09.173Z,98733.53
2022-11-18T04:01:42.938Z,98699.31
2022-11-18T04:04:13.040Z,98681.78
2022-11-18T04:06:47.140Z,98739.47
2022-11-18T04:09:20.907Z,98740.84
2022-11-18T04:12:06.377Z,98743.09
2022-11-18T04:14:37.072Z,98702.91
2022-11-18T04:17:10.610Z,98750.94
2022-11-18T04:19:38.833Z,98753.22
2022-11-18T04:22:07.579Z,98752.88
2022-11-18T04:24:35.669Z,98741.84
2022-11-18T04:27:04.961Z,98745.63
2022-11-18T04:29:33.652Z,98764.50
2022-11-18T04:32:02.555Z,98770.44
2022-11-18T04:34:32.107Z,98772.41
2022-11-18T04:37:00.567Z,98772.13
2022-11-18T04:39:28.447Z,98780.47
2022-11-18T04:41:59.216Z,98742.25
2022-11-18T04:44:29.236Z,98784.22
2022-11-18T04:46:58.631Z,98789.00
2022-11-18T04:49:27.491Z,98775.47
2022-11-18T04:51:57.385Z,98660.19
2022-11-18T04:54:26.902Z,98786.69
2022-11-18T04:56:55.376Z,98787.41
2022-11-18T04:59:26.964Z,98726.38
2022-11-18T05:01:55.736Z,98795.91
2022-11-18T05:04:25.743Z,98666.09
2022-11-18T05:06:54.230Z,98794.50
2022-11-18T05:09:28.654Z,98697.53
2022-11-18T05:12:16.877Z,98787.56
2022-11-18T05:14:49.542Z,98785.88
2022-11-18T05:17:18.085Z,98775.56
2022-11-18T05:19:45.993Z,98799.81
2022-11-18T05:22:15.911Z,98809.19
2022-11-18T05:24:45.739Z,98815.56
2022-11-18T05:27:14.405Z,98818.03
2022-11-18T05:29:42.594Z,98815.34
2022-11-18T05:32:11.120Z,98823.28
2022-11-18T05:34:40.046Z,98802.38
2022-11-18T05:37:08.400Z,98823.94
2022-11-18T05:39:36.719Z,98842.69
2022-11-18T05:42:24.293Z,98827.16
2022-11-18T05:44:57.869Z,98839.44
2022-11-18T05:47:27.072Z,98644.31
2022-11-18T05:49:55.270Z,98785.22
2022-11-18T05:52:23.518Z,98849.59
2022-11-18T05:54:52.661Z,98831.91
2022-11-18T05:57:22.344Z,98859.97
2022-11-18T05:59:50.235Z,98868.59
2022-11-18T06:02:22.919Z,98859.47
2022-11-18T06:04:54.374Z,98853.19
2022-11-18T06:07:26.694Z,98871.53
2022-11-18T06:10:04.796Z,98869.59
2022-11-18T06:12:40.234Z,98884.69
2022-11-18T06:15:13.128Z,98886.75
2022-11-18T06:17:46.742Z,98886.75
2022-11-18T06:20:14.947Z,98885.84
2022-11-18T06:22:46.573Z,98884.09
2022-11-18T06:25:15.760Z,98886.66
2022-11-18T06:27:45.961Z,98887.84
2022-11-18T06:30:14.342Z,98884.25
2022-11-18T06:32:42.558Z,98862.06
2022-11-18T06:35:11.114Z,98880.53
2022-11-18T06:37:39.044Z,98784.16
2022-11-18T06:40:08.155Z,98893.94
2022-11-18T06:42:53.630Z,98898.25
2022-11-18T06:45:23.045Z,98901.69
2022-11-18T06:47:50.047Z,98843.88
2022-11-18T06:50:18.537Z,98918.16
2022-11-18T06:52:46.550Z,98916.13
2022-11-18T06:55:14.701Z,98898.03
2022-11-18T06:57:42.663Z,98928.38
2022-11-18T07:00:11.796Z,98911.00
2022-11-18T07:02:41.188Z,98812.94
2022-11-18T07:05:09.439Z,98922.25
2022-11-18T07:07:41.707Z,98942.53
2022-11-18T07:10:11.148Z,98947.75
2022-11-18T07:12:39.105Z,98945.72
2022-11-18T07:15:07.897Z,98858.53
2022-11-18T07:17:36.227Z,98949.81
2022-11-18T07:20:06.161Z,98955.53
2022-11-18T07:22:34.148Z,98963.03
2022-11-18T07:25:02.132Z,98960.84
2022-11-18T07:27:30.194Z,98969.91
2022-11-18T07:29:58.111Z,98970.31
2022-11-18T07:32:26.058Z,98982.19
2022-11-18T07:34:54.042Z,98987.22
2022-11-18T07:37:23.623Z,98983.50
2022-11-18T07:39:51.643Z,98986.53
2022-11-18T07:42:19.555Z,98994.53
2022-11-18T07:44:47.566Z,98995.56
2022-11-18T07:47:15.785Z,98992.91
2022-11-18T07:49:43.757Z,98999.75
2022-11-18T07:52:11.699Z,98996.09
2022-11-18T07:54:41.266Z,98995.19
2022-11-18T07:57:10.100Z,99007.81
2022-11-18T07:59:38.035Z,98902.22
2022-11-18T08:02:06.809Z,98919.78
2022-11-18T08:04:34.768Z,99008.00
2022-11-18T08:07:03.107Z,99011.06
2022-11-18T08:09:31.316Z,99007.13
2022-11-18T08:12:01.010Z,98962.34
2022-11-18T08:14:29.312Z,99008.69
2022-11-18T08:16:57.235Z,98985.22
2022-11-18T08:19:25.202Z,99004.31
2022-11-18T08:21:53.293Z,99031.09
2022-11-18T08:24:21.309Z,99038.66
2022-11-18T08:26:49.235Z,99037.63
2022-11-18T08:29:24.563Z,99039.44
2022-11-18T08:31:53.103Z,99039.38
2022-11-18T08:34:20.947Z,99040.06
2022-11-18T08:36:48.776Z,99053.97
2022-11-18T08:39:17.130Z,98943.72
2022-11-18T08:41:47.062Z,99044.44
2022-11-18T08:44:17.278Z,99041.09
2022-11-18T08:46:46.799Z,99048.91
2022-11-18T08:49:14.709Z,99039.16
2022-11-18T08:51:42.806Z,99054.81
2022-11-18T08:54:10.998Z,99052.44
2022-11-18T08:56:39.205Z,99024.59
2022-11-18T08:59:07.255Z,99054.03
2022-11-18T09:01:35.703Z,99058.31
2022-11-18T09:04:05.382Z,99060.31
2022-11-18T09:06:35.847Z,99050.84
2022-11-18T09:09:06.577Z,99021.50
2022-11-18T09:11:35.430Z,99070.06
2022-11-18T09:16:51.708Z,99071.06
2022-11-18T09:22:10.110Z,99041.72
2022-11-18T09:24:38.185Z,99082.25
2022-11-18T09:27:13.641Z,99072.94
2022-11-18T09:29:43.543Z,99089.53
2022-11-18T09:32:11.745Z,99086.28
2022-11-18T09:34:41.488Z,99068.66
2022-11-18T09:37:09.641Z,99101.88
2022-11-18T09:39:37.897Z,99100.38
2022-11-18T09:42:19.276Z,99091.28
2022-11-18T09:45:01.529Z,99100.41
2022-11-18T09:47:31.393Z,99111.19
2022-11-18T09:50:26.935Z,99113.44
2022-11-18T09:53:05.479Z,99076.66
2022-11-18T09:55:38.592Z,99102.28
2022-11-18T09:58:07.512Z,99117.13
2022-11-18T10:00:35.897Z,99118.16
2022-11-18T10:03:06.697Z,99117.47
2022-11-18T10:05:49.628Z,99135.16
2022-11-18T10:08:24.951Z,99118.41
2022-11-18T10:11:01.554Z,99062.03
2022-11-18T10:13:43.786Z,99130.97
2022-11-18T10:16:24.630Z,99040.94
2022-11-18T10:19:01.138Z,99138.50
2022-11-18T10:21:40.464Z,98949.63
2022-11-18T10:24:14.406Z,99155.81
2022-11-18T10:26:43.478Z,99166.03
2022-11-18T10:29:11.563Z,99166.28
2022-11-18T10:31:40.715Z,99126.38
2022-11-18T10:34:14.899Z,99175.09
2022-11-18T10:36:44.774Z,99096.56
2022-11-18T10:39:14.675Z,99123.69
2022-11-18T10:41:51.030Z,99155.63
2022-11-18T10:44:40.871Z,99176.72
2022-11-18T10:47:24.574Z,99183.66
2022-11-18T10:49:53.277Z,99176.72
2022-11-18T10:52:23.393Z,99152.59
2022-11-18T10:55:09.762Z,99205.13
2022-11-18T10:57:43.296Z,99196.19
2022-11-18T11:00:36.704Z,99200.50
2022-11-18T11:03:32.650Z,99202.41
2022-11-18T11:06:38.227Z,99209.53
2022-11-18T11:09:10.368Z,99208.75
2022-11-18T11:11:43.329Z,99180.97
2022-11-18T11:14:23.061Z,99205.16
2022-11-18T11:16:58.803Z,99175.66
2022-11-18T11:19:34.150Z,99207.63
2022-11-18T11:22:02.606Z,99217.72
2022-11-18T11:24:32.028Z,99193.81
2022-11-18T11:30:21.334Z,99224.38
2022-11-18T11:33:11.613Z,99232.84
2022-11-18T11:35:44.042Z,99221.91
2022-11-18T11:38:19.756Z,99231.47
2022-11-18T11:41:03.401Z,99237.56
2022-11-18T11:43:40.782Z,99229.25
2022-11-18T11:46:24.439Z,99222.19
2022-11-18T11:48:59.530Z,99186.50
2022-11-18T11:51:34.363Z,99225.31
2022-11-18T11:54:15.380Z,99247.00
2022-11-18T11:56:49.853Z,99245.09
2022-11-18T11:59:26.122Z,99246.94
2022-11-18T12:02:00.869Z,99247.25
2022-11-18T12:04:41.235Z,99177.44
2022-11-18T12:07:17.154Z,99265.22
2022-11-18T12:09:57.770Z,99239.03
2022-11-18T12:12:37.415Z,99263.47
2022-11-18T12:15:17.467Z,99249.34
2022-11-18T12:17:55.668Z,99255.06
2022-11-18T12:20:40.959Z,99258.91
2022-11-18T12:23:14.653Z,99268.81
2022-11-18T12:25:57.350Z,99271.94
2022-11-18T12:28:37.015Z,99279.03
2022-11-18T12:31:38.568Z,99272.72
2022-11-18T12:34:20.668Z,99284.75
2022-11-18T12:36:49.151Z,99257.63
2022-11-18T12:39:48.311Z,99278.91
2022-11-18T12:42:54.424Z,99278.97
2022-11-18T12:45:58.873Z,99291.41
2022-11-18T12:48:46.146Z,99286.16
2022-11-18T12:51:42.804Z,99292.78
2022-11-18T12:54:33.221Z,99294.16
2022-11-18T12:57:03.670Z,99296.97
2022-11-18T12:59:34.333Z,99304.03
2022-11-18T13:02:20.411Z,99295.44
2022-11-18T13:05:06.125Z,99292.50
2022-11-18T13:08:07.961Z,99302.56
2022-11-18T13:10:41.525Z,99300.88
2022-11-18T13:13:24.281Z,99264.25
2022-11-18T13:16:09.940Z,99311.22
2022-11-18T13:18:49.770Z,99303.41
2022-11-18T13:21:51.986Z,99316.63
2022-11-18T13:24:21.870Z,99321.47
2022-11-18T13:26:56.495Z,99321.16
2022-11-18T13:29:34.277Z,99296.22
2022-11-18T13:32:15.944Z,99325.34
2022-11-18T13:34:48.121Z,99335.78
2022-11-18T13:37:23.306Z,99320.63
2022-11-18T13:39:52.264Z,99327.41
2022-11-18T13:42:22.467Z,99326.69
2022-11-18T13:44:54.293Z,99330.53
2022-11-18T13:47:29.266Z,99331.28
2022-11-18T13:50:05.715Z,99329.28
2022-11-18T13:52:40.013Z,99329.00
2022-11-18T13:55:14.063Z,99290.09
2022-11-18T13:57:42.592Z,99334.03
2022-11-18T14:00:23.276Z,99340.03
2022-11-18T14:02:58.937Z,99320.13
2022-11-18T14:05:27.696Z,99306.72
2022-11-18T14:08:08.308Z,99350.84
2022-11-18T14:10:45.173Z,99324.50
2022-11-18T14:13:22.074Z,99349.16
2022-11-18T14:15:50.340Z,99358.03
2022-11-18T14:18:22.297Z,99359.78
2022-11-18T14:20:55.105Z,99291.50
2022-11-18T14:23:30.627Z,99364.75
2022-11-18T14:26:00.377Z,99372.59
2022-11-18T14:28:30.134Z,99374.38
2022-11-18T14:31:01.383Z,99380.00
2022-11-18T14:33:30.334Z,99376.78
2022-11-18T14:35:59.961Z,99378.75
2022-11-18T14:41:49.737Z,99300.00
2022-11-18T14:44:19.326Z,99374.97
2022-11-18T14:46:49.862Z,99381.38
2022-11-18T14:49:19.977Z,99388.97
2022-11-18T14:51:48.460Z,99391.88
2022-11-18T14:54:25.847Z,99397.66
2022-11-18T14:56:58.619Z,99405.44
2022-11-18T14:59:26.928Z,99391.41
2022-11-18T15:01:55.009Z,99397.28
2022-11-18T15:04:23.255Z,99406.75
2022-11-18T15:06:51.189Z,99413.16
2022-11-18T15:09:20.539Z,99422.91
2022-11-18T15:11:48.698Z,99424.75
2022-11-18T15:14:16.820Z,99425.13
2022-11-18T15:16:45.156Z,99425.81
2022-11-18T15:19:16.141Z,99308.66
2022-11-18T15:21:45.336Z,99427.81
2022-11-18T15:24:13.663Z,99331.25
2022-11-18T15:26:45.306Z,99431.53
2022-11-18T15:29:18.418Z,99436.41
2022-11-18T15:31:46.776Z,99420.50
2022-11-18T15:34:14.953Z,99440.25
2022-11-18T15:36:42.918Z,99412.38
2022-11-18T15:39:11.708Z,99443.44
2022-11-18T15:41:42.839Z,99452.75
2022-11-18T15:44:11.994Z,99454.34
2022-11-18T15:46:40.397Z,99427.03
2022-11-18T15:49:09.887Z,99323.38
2022-11-18T15:51:38.053Z,99462.13
2022-11-18T15:54:06.100Z,99436.50
2022-11-18T15:56:34.570Z,99441.47
2022-11-18T15:59:05.604Z,99454.34
2022-11-18T16:01:35.375Z,99471.66
2022-11-18T16:04:04.022Z,99473.50
2022-11-18T16:06:32.578Z,99465.75
2022-11-18T16:09:00.804Z,99451.28
2022-11-18T16:11:47.067Z,99486.19
2022-11-18T16:14:18.232Z,99494.03
2022-11-18T16:16:49.028Z,99491.78
2022-11-18T16:19:19.673Z,99396.22
2022-11-18T16:21:49.186Z,99500.41
2022-11-18T16:24:19.075Z,99494.34
2022-11-18T16:26:47.270Z,99505.84
2022-11-18T16:29:18.392Z,99497.63
2022-11-18T16:31:51.026Z,99510.41
2022-11-18T16:34:20.744Z,99460.84
2022-11-18T16:36:51.016Z,99513.53
2022-11-18T16:39:23.470Z,99518.63
2022-11-18T16:41:52.285Z,99504.09
2022-11-18T16:44:21.770Z,99529.50
2022-11-18T16:46:51.390Z,99540.16
2022-11-18T16:49:21.879Z,99527.97
2022-11-18T16:51:52.146Z,99541.97
2022-11-18T16:54:22.881Z,99546.97
2022-11-18T16:56:52.105Z,99553.47
2022-11-18T16:59:23.621Z,99552.59
2022-11-18T17:01:53.138Z,99555.38
2022-11-18T17:04:23.485Z,99562.88
2022-11-18T17:06:52.048Z,99573.03
2022-11-18T17:09:22.398Z,99574.63
2022-11-18T17:11:51.325Z,99582.22
2022-11-18T17:14:19.892Z,99577.84
2022-11-18T17:16:50.357Z,99465.94
2022-11-18T17:19:20.954Z,99584.88
2022-11-18T17:21:49.752Z,99568.88
2022-11-18T17:24:21.860Z,99580.16
2022-11-18T17:26:50.854Z,99529.59
2022-11-18T17:29:19.385Z,99580.09
2022-11-18T17:31:47.427Z,99583.16
2022-11-18T17:34:17.668Z,99366.44
2022-11-18T17:36:45.883Z,99602.78
2022-11-18T17:39:14.562Z,99564.16
2022-11-18T17:42:00.388Z,99609.50
2022-11-18T17:44:28.793Z,99614.84
2022-11-18T17:46:57.063Z,99619.63
2022-11-18T17:49:26.460Z,99616.69
2022-11-18T17:51:54.307Z,99623.41
2022-11-18T17:54:23.213Z,99636.53
2022-11-18T17:56:52.322Z,99592.78
2022-11-18T17:59:20.642Z,99620.09
2022-11-18T18:01:50.768Z,99640.28
2022-11-18T18:04:22.962Z,99645.69
2022-11-18T18:06:52.989Z,99647.47
2022-11-18T18:09:27.002Z,99650.16
2022-11-18T18:11:58.945Z,99636.06
2022-11-18T18:14:26.353Z,99658.94
2022-11-18T18:16:54.537Z,99628.97
2022-11-18T18:19:23.649Z,99668.28
2022-11-18T18:21:53.801Z,99665.72
2022-11-18T18:24:22.003Z,99672.09
2022-11-18T18:26:50.237Z,99672.00
2022-11-18T18:29:18.244Z,99666.84
2022-11-18T18:31:46.273Z,99683.50
2022-11-18T18:34:14.329Z,99699.50
2022-11-18T18:36:42.324Z,99692.59
2022-11-18T18:39:11.798Z,99693.28
2022-11-18T18:41:39.959Z,99645.28
2022-11-18T18:44:08.414Z,99521.00
2022-11-18T18:46:36.731Z,99477.22
2022-11-18T18:49:08.162Z,99700.34
2022-11-18T18:51:38.124Z,99687.91
2022-11-18T18:54:06.898Z,99657.50
2022-11-18T18:56:36.235Z,99702.25
2022-11-18T18:59:04.414Z,99661.16
2022-11-18T19:01:33.629Z,99663.91
2022-11-18T19:04:03.626Z,99710.13
2022-11-18T19:06:56.957Z,99684.06
2022-11-18T19:09:21.681Z,99714.75
2022-11-18T19:12:08.569Z,99707.53
2022-11-18T19:14:36.904Z,99720.06
2022-11-18T19:17:10.107Z,99660.59
2022-11-18T19:19:56.872Z,99718.97
2022-11-18T19:22:24.839Z,99685.63
2022-11-18T19:24:53.569Z,99734.03
2022-11-18T19:27:23.883Z,99673.63
2022-11-18T19:29:52.168Z,99537.34
2022-11-18T19:32:20.373Z,99734.88
2022-11-18T19:34:48.935Z,99724.41
2022-11-18T19:37:17.034Z,99671.13
2022-11-18T19:39:44.967Z,99732.38
2022-11-18T19:42:13.218Z,99731.41
2022-11-18T19:44:42.646Z,99750.72
2022-11-18T19:47:10.804Z,99748.94
2022-11-18T19:49:38.986Z,99744.44
2022-11-18T19:52:07.037Z,99750.59
2022-11-18T19:54:35.154Z,99748.88
2022-11-18T19:57:04.059Z,99731.22
2022-11-18T19:59:32.144Z,99755.81
2022-11-18T20:02:01.940Z,99761.22
2022-11-18T20:04:30.088Z,99754.25
2022-11-18T20:06:58.279Z,99627.34
2022-11-18T20:09:26.544Z,99765.41
2022-11-18T20:11:55.555Z,99760.16
2022-11-18T20:14:23.656Z,99597.63
2022-11-18T20:16:52.864Z,99773.50
2022-11-18T20:19:22.867Z,99756.97
2022-11-18T20:21:52.511Z,99772.66
2022-11-18T20:24:20.508Z,99738.41
2022-11-18T20:26:48.794Z,99770.09
2022-11-18T20:29:17.437Z,99763.06
2022-11-18T20:31:45.986Z,99775.16
2022-11-18T20:34:14.961Z,99763.78
2022-11-18T20:36:44.862Z,99792.03
2022-11-18T20:39:15.348Z,99737.59
2022-11-18T20:42:03.998Z,99736.78
2022-11-18T20:44:32.069Z,99779.59
2022-11-18T20:47:00.218Z,99773.69
2022-11-18T20:49:28.436Z,99776.34
2022-11-18T20:51:59.654Z,99786.78
2022-11-18T20:54:27.528Z,99788.53
2022-11-18T20:56:55.701Z,99570.72
2022-11-18T20:59:23.593Z,99773.78
2022-11-18T21:01:51.557Z,99796.53
2022-11-18T21:04:19.492Z,99798.25
2022-11-18T21:06:47.986Z,99798.28
2022-11-18T21:09:17.740Z,99805.22
2022-11-18T21:11:45.873Z,99754.38
2022-11-18T21:14:23.936Z,99812.19
2022-11-18T21:16:54.097Z,99815.72
2022-11-18T21:19:22.569Z,99814.66
2022-11-18T21:21:52.408Z,99784.09
2022-11-18T21:24:23.074Z,99816.63
2022-11-18T21:26:54.591Z,99786.91
2022-11-18T21:29:24.264Z,99820.19
2022-11-18T21:31:53.284Z,99807.97
2022-11-18T21:34:22.502Z,99789.47
2022-11-18T21:36:54.634Z,99663.50
2022-11-18T21:39:25.171Z,99817.66
2022-11-18T21:41:57.622Z,99822.00
2022-11-18T21:44:28.086Z,99809.75
2022-11-18T21:46:57.312Z,99822.84
2022-11-18T21:49:25.339Z,99819.34
2022-11-18T21:51:53.502Z,99814.97
2022-11-18T21:54:21.434Z,99830.75
2022-11-18T21:56:50.953Z,99828.13
2022-11-18T21:59:19.361Z,99794.69
2022-11-18T22:01:47.422Z,99761.53
2022-11-18T22:04:35.772Z,99816.72
2022-11-18T22:07:03.823Z,99818.50
2022-11-18T22:09:36.375Z,99581.25
2022-11-18T22:12:07.957Z,99824.50
2022-11-18T22:14:36.709Z,99824.50
2022-11-18T22:17:05.275Z,99837.69
2022-11-18T22:19:33.173Z,99819.28
2022-11-18T22:22:01.158Z,99829.84
2022-11-18T22:24:29.182Z,99811.59
2022-11-18T22:26:57.306Z,99850.06
2022-11-18T22:29:26.667Z,99838.53
2022-11-18T22:31:54.646Z,99608.28
2022-11-18T22:34:22.610Z,99840.38
2022-11-18T22:36:50.546Z,99847.44
2022-11-18T22:39:19.059Z,99847.38
2022-11-18T22:42:04.618Z,99845.59
2022-11-18T22:44:34.014Z,99851.88
2022-11-18T22:47:02.204Z,99859.69
2022-11-18T22:49:30.287Z,99858.81
2022-11-18T22:51:58.583Z,99864.97
2022-11-18T22:54:41.925Z,99866.75
2022-11-18T22:57:10.084Z,99716.06
2022-11-18T22:59:39.335Z,99867.44
2022-11-18T23:02:07.560Z,99863.22
2022-11-18T23:04:35.734Z,99854.53
2022-11-18T23:07:03.991Z,99864.16
2022-11-18T23:09:32.081Z,99876.41
2022-11-18T23:12:17.429Z,99861.59
2022-11-18T23:14:47.051Z,99802.88
2022-11-18T23:17:15.952Z,99863.28
2022-11-18T23:19:44.416Z,99810.69
2022-11-18T23:22:12.749Z,99890.47
2022-11-18T23:24:40.838Z,99894.84
2022-11-18T23:27:08.903Z,99880.78
2022-11-18T23:29:36.946Z,99865.09
2022-11-18T23:32:06.418Z,99879.84
2022-11-18T23:34:34.361Z,99896.59
2022-11-18T23:37:02.582Z,99900.16
2022-11-18T23:39:30.488Z,99894.91
2022-11-18T23:41:58.456Z,99831.78
2022-11-18T23:44:40.373Z,99903.66
2022-11-18T23:47:09.744Z,99906.38
2022-11-18T23:49:37.632Z,99883.53
2022-11-18T23:52:06.222Z,99895.81
2022-11-18T23:54:34.196Z,99911.50
2022-11-18T23:57:04.540Z,99887.94
2022-11-18T23:59:33.299Z,99786.28
